Itanhaem, Brazil
Current Conditions -  °F | °C
As of 7:00 PM on Friday 24 Oct 2014 (Local Time) from SBST Reporting Station
Overcast Overcast  
Wind Chill: 73°   Ceiling: 3000
Heat Index: 73°   Visibility: 6mi
Dew Point: 64°   Wind: 0mph
Humidity: 73%   Direction: NA
Pressure: 29.91"   Gusts: NA
Location:  24.18°S, 46.8°W
Report Text: SBST 242100Z 00000KT 9999 OVC030 23/18 Q1013
Loading
Personal Weather Stations






























Interactive Weather Map
Tropical Storm Tracking
New forecast layout! Learn more

10-Day Weather Forecast

Advertisements
Track Severe Weather on mobile